createdAt,value
2022-09-07T00:00:16.114Z,19.72
2022-09-07T00:02:45.959Z,19.49
2022-09-07T00:05:15.799Z,19.52
2022-09-07T00:07:45.587Z,20.00
2022-09-07T00:10:15.124Z,20.01
2022-09-07T00:12:44.900Z,19.99
2022-09-07T00:15:15.002Z,19.96
2022-09-07T00:17:44.777Z,19.79
2022-09-07T00:20:15.012Z,20.04
2022-09-07T00:22:46.151Z,19.99
2022-09-07T00:25:16.072Z,19.36
2022-09-07T00:27:45.597Z,19.49
2022-09-07T00:30:16.380Z,19.49
2022-09-07T00:32:46.315Z,19.70
2022-09-07T00:35:16.405Z,19.82
2022-09-07T00:37:46.179Z,19.74
2022-09-07T00:40:17.621Z,20.03
2022-09-07T00:42:47.396Z,20.06
2022-09-07T00:45:22.409Z,19.96
2022-09-07T00:48:00.746Z,19.97
2022-09-07T00:50:39.448Z,19.97
2022-09-07T00:53:29.920Z,19.97
2022-09-07T00:56:02.034Z,20.04
2022-09-07T00:58:34.056Z,19.92
2022-09-07T01:01:03.917Z,19.94
2022-09-07T01:03:36.409Z,19.85
2022-09-07T01:06:20.623Z,19.98
2022-09-07T01:08:51.412Z,19.77
2022-09-07T01:11:23.826Z,19.68
2022-09-07T01:13:54.736Z,19.72
2022-09-07T01:16:49.417Z,19.76
2022-09-07T01:19:31.085Z,19.75
2022-09-07T01:22:13.026Z,19.92
2022-09-07T01:24:48.296Z,19.81
2022-09-07T01:27:48.083Z,19.83
2022-09-07T01:30:20.918Z,19.75
2022-09-07T01:33:02.860Z,19.65
2022-09-07T01:35:44.111Z,19.57
2022-09-07T01:38:27.343Z,19.65
2022-09-07T01:41:12.168Z,19.63
2022-09-07T01:43:50.744Z,19.49
2022-09-07T01:46:29.306Z,19.40
2022-09-07T01:49:11.094Z,19.43
2022-09-07T01:51:43.904Z,19.35
2022-09-07T01:54:18.111Z,19.47
2022-09-07T01:56:51.095Z,19.58
2022-09-07T01:59:26.280Z,19.53
2022-09-07T02:02:13.639Z,19.41
2022-09-07T02:04:52.046Z,19.37
2022-09-07T02:07:27.278Z,19.38
2022-09-07T02:10:02.513Z,19.43
2022-09-07T02:12:37.425Z,19.33
2022-09-07T02:15:11.415Z,19.41
2022-09-07T02:17:46.760Z,19.42
2022-09-07T02:20:21.739Z,19.28
2022-09-07T02:22:54.618Z,19.27
2022-09-07T02:25:27.311Z,19.35
2022-09-07T02:28:00.117Z,19.48
2022-09-07T02:30:29.685Z,19.47
2022-09-07T02:32:59.446Z,19.54
2022-09-07T02:35:29.856Z,19.40
2022-09-07T02:38:03.487Z,19.20
2022-09-07T02:40:33.690Z,19.20
2022-09-07T02:43:06.651Z,19.29
2022-09-07T02:46:00.305Z,19.25
2022-09-07T02:48:36.009Z,19.17
2022-09-07T02:51:11.030Z,19.25
2022-09-07T02:54:03.169Z,19.44
2022-09-07T02:56:44.473Z,19.43
2022-09-07T02:59:32.173Z,19.45
2022-09-07T03:02:30.252Z,19.39
2022-09-07T03:05:14.861Z,19.26
2022-09-07T03:08:05.673Z,19.43
2022-09-07T03:10:36.985Z,19.35
2022-09-07T03:13:07.195Z,19.48
2022-09-07T03:15:37.016Z,19.26
2022-09-07T03:18:08.567Z,19.31
2022-09-07T03:20:38.322Z,19.31
2022-09-07T03:23:08.154Z,19.52
2022-09-07T03:25:38.516Z,19.43
2022-09-07T03:28:08.785Z,19.43
2022-09-07T03:30:40.164Z,19.44
2022-09-07T03:33:09.983Z,19.44
2022-09-07T03:35:39.744Z,19.64
2022-09-07T03:38:10.876Z,19.65
2022-09-07T03:40:40.927Z,19.58
2022-09-07T03:43:10.704Z,19.66
2022-09-07T03:45:40.579Z,19.63
2022-09-07T03:48:11.476Z,19.76
2022-09-07T03:50:41.233Z,19.94
2022-09-07T03:53:11.002Z,19.62
2022-09-07T03:55:40.847Z,19.80
2022-09-07T03:58:11.481Z,19.80
2022-09-07T04:00:43.073Z,19.87
2022-09-07T04:03:12.837Z,19.68
2022-09-07T04:05:42.592Z,19.80
2022-09-07T04:08:13.065Z,19.89
2022-09-07T04:10:43.392Z,19.84
2022-09-07T04:13:13.464Z,19.96
2022-09-07T04:15:42.932Z,20.23
2022-09-07T04:18:13.137Z,20.01
2022-09-07T04:20:42.974Z,19.95
2022-09-07T04:23:13.502Z,19.88
2022-09-07T04:25:53.305Z,19.81
2022-09-07T04:28:23.066Z,19.81
2022-09-07T04:30:52.905Z,19.61
2022-09-07T04:33:22.988Z,19.49
2022-09-07T04:35:52.755Z,19.36
2022-09-07T04:38:22.365Z,19.36
2022-09-07T04:40:53.660Z,19.32
2022-09-07T04:43:23.554Z,19.24
2022-09-07T04:45:53.352Z,19.24
2022-09-07T04:48:23.192Z,19.24
2022-09-07T04:50:53.254Z,19.08
2022-09-07T04:53:23.019Z,19.20
2022-09-07T04:55:52.857Z,19.27
2022-09-07T04:58:22.632Z,19.32
2022-09-07T05:00:52.459Z,19.14
2022-09-07T05:03:22.520Z,19.10
2022-09-07T05:05:52.285Z,18.97
2022-09-07T05:08:22.057Z,19.01
2022-09-07T05:10:56.643Z,18.98
2022-09-07T05:13:26.415Z,18.79
2022-09-07T05:15:56.225Z,18.79
2022-09-07T05:18:26.263Z,18.79
2022-09-07T05:20:56.329Z,18.84
2022-09-07T05:23:26.172Z,18.95
2022-09-07T05:25:55.943Z,18.65
2022-09-07T05:28:25.708Z,18.56
2022-09-07T05:35:59.561Z,18.36
2022-09-07T05:38:29.878Z,18.29
2022-09-07T05:40:59.727Z,18.28
2022-09-07T05:43:30.897Z,18.34
2022-09-07T05:46:00.738Z,18.55
2022-09-07T05:48:31.198Z,18.50
2022-09-07T05:51:01.128Z,18.32
2022-09-07T05:53:31.233Z,18.21
2022-09-07T05:56:06.461Z,18.41
2022-09-07T05:58:33.364Z,18.47
2022-09-07T06:01:06.325Z,18.39
2022-09-07T06:03:40.581Z,18.52
2022-09-07T06:06:12.675Z,18.52
2022-09-07T06:08:47.761Z,18.69
2022-09-07T06:11:23.310Z,18.76
2022-09-07T06:13:53.470Z,18.76
2022-09-07T06:16:23.242Z,18.84
2022-09-07T06:18:53.126Z,18.98
2022-09-07T06:21:24.601Z,18.91
2022-09-07T06:23:55.364Z,19.09
2022-09-07T06:26:24.841Z,18.99
2022-09-07T06:28:57.805Z,18.84
2022-09-07T06:31:26.271Z,18.95
2022-09-07T06:33:56.667Z,18.90
2022-09-07T06:36:28.196Z,19.04
2022-09-07T06:39:01.589Z,19.23
2022-09-07T06:44:04.831Z,19.09
2022-09-07T06:49:06.077Z,18.84
2022-09-07T06:51:35.860Z,18.74
2022-09-07T06:56:38.518Z,18.84
2022-09-07T06:59:08.566Z,18.92
2022-09-07T07:01:38.349Z,19.17
2022-09-07T07:04:08.139Z,19.47
2022-09-07T07:06:39.463Z,19.32
2022-09-07T07:09:11.631Z,19.31
2022-09-07T07:11:43.485Z,19.28
2022-09-07T07:14:15.393Z,19.15
2022-09-07T07:16:45.316Z,19.45
2022-09-07T07:19:15.243Z,19.51
2022-09-07T07:22:07.906Z,20.01
2022-09-07T07:24:16.606Z,20.01
2022-09-07T07:26:48.025Z,19.89
2022-09-07T07:29:18.914Z,19.83
2022-09-07T07:31:49.144Z,19.94
2022-09-07T07:34:19.015Z,19.94
2022-09-07T07:36:48.786Z,19.85
2022-09-07T07:41:54.453Z,19.91
2022-09-07T07:44:22.006Z,20.13
2022-09-07T07:46:52.491Z,20.13
2022-09-07T07:49:22.285Z,20.30
2022-09-07T07:54:24.729Z,20.68
2022-09-07T07:56:54.489Z,20.72
2022-09-07T07:59:24.235Z,20.62
2022-09-07T08:01:54.156Z,20.70
2022-09-07T08:04:24.013Z,21.21
2022-09-07T08:06:53.762Z,21.85
2022-09-07T08:09:23.579Z,21.61
2022-09-07T08:11:53.548Z,21.76
2022-09-07T08:14:23.396Z,21.89
2022-09-07T08:16:53.148Z,22.45
2022-09-07T08:19:22.895Z,22.54
2022-09-07T08:21:53.015Z,22.46
2022-09-07T08:24:22.681Z,22.44
2022-09-07T08:26:52.706Z,22.47
2022-09-07T08:29:22.444Z,21.80
2022-09-07T08:31:52.676Z,22.34
2022-09-07T08:34:22.569Z,22.48
2022-09-07T08:36:52.012Z,22.75
2022-09-07T08:39:21.832Z,22.78
2022-09-07T08:44:55.230Z,22.54
2022-09-07T08:47:48.999Z,23.07
2022-09-07T08:50:28.797Z,22.61
2022-09-07T08:53:04.545Z,22.60
2022-09-07T08:55:37.383Z,22.21
2022-09-07T08:58:47.630Z,22.37
2022-09-07T09:01:30.636Z,22.41
2022-09-07T09:03:33.053Z,22.80
2022-09-07T09:06:08.403Z,22.89
2022-09-07T09:08:50.097Z,23.45
2022-09-07T09:11:25.925Z,23.25
2022-09-07T09:14:14.831Z,23.14
2022-09-07T09:17:02.104Z,23.30
2022-09-07T09:20:01.424Z,23.78
2022-09-07T09:22:31.271Z,23.29
2022-09-07T09:25:06.718Z,23.29
2022-09-07T09:27:36.469Z,22.99
2022-09-07T09:30:17.952Z,23.62
2022-09-07T09:32:50.549Z,23.85
2022-09-07T09:35:29.752Z,24.30
2022-09-07T09:37:59.942Z,23.82
2022-09-07T09:40:32.713Z,23.86
2022-09-07T09:43:20.440Z,24.09
2022-09-07T09:48:36.084Z,24.23
2022-09-07T09:53:42.534Z,24.54
2022-09-07T09:56:12.234Z,24.50
2022-09-07T10:01:28.008Z,24.79
2022-09-07T10:04:01.355Z,24.59
2022-09-07T10:06:32.075Z,24.15
2022-09-07T10:09:05.010Z,24.84
2022-09-07T10:14:35.662Z,25.81
2022-09-07T10:17:32.302Z,25.71
2022-09-07T10:20:04.784Z,25.69
2022-09-07T10:22:37.030Z,26.08
2022-09-07T10:25:10.773Z,26.08
2022-09-07T10:27:40.860Z,26.41
2022-09-07T10:30:17.718Z,26.24
2022-09-07T10:32:55.978Z,25.51
2022-09-07T10:35:40.432Z,25.14
2022-09-07T10:38:25.813Z,25.70
2022-09-07T10:40:58.639Z,25.87
2022-09-07T10:43:49.801Z,26.06
2022-09-07T10:49:12.307Z,25.70
2022-09-07T10:51:44.811Z,26.09
2022-09-07T10:54:31.124Z,26.24
2022-09-07T10:57:06.954Z,26.08
2022-09-07T11:05:46.985Z,26.93
2022-09-07T11:08:19.729Z,27.11
2022-09-07T11:10:58.192Z,26.62
2022-09-07T11:13:31.290Z,26.23
2022-09-07T11:16:04.157Z,26.50
2022-09-07T11:18:41.972Z,26.83
2022-09-07T11:21:56.230Z,26.85
2022-09-07T11:23:57.791Z,26.80
2022-09-07T11:26:33.235Z,26.80
2022-09-07T11:31:42.380Z,27.18
2022-09-07T11:34:46.016Z,27.37
2022-09-07T11:37:33.428Z,27.36
2022-09-07T11:40:06.344Z,27.17
2022-09-07T11:42:43.489Z,27.55
2022-09-07T11:45:34.531Z,27.55
2022-09-07T11:48:19.574Z,27.89
2022-09-07T11:50:52.555Z,27.65
2022-09-07T11:53:31.339Z,27.20
2022-09-07T11:56:04.104Z,27.20
2022-09-07T11:58:53.262Z,27.95
2022-09-07T12:01:31.888Z,27.77
2022-09-07T12:04:15.847Z,27.64
2022-09-07T12:06:48.616Z,27.61
2022-09-07T12:09:37.472Z,27.61
2022-09-07T12:12:46.659Z,27.36
2022-09-07T12:15:26.751Z,27.03
2022-09-07T12:18:19.842Z,26.68
2022-09-07T12:20:50.482Z,27.17
2022-09-07T12:23:23.250Z,27.73
2022-09-07T12:25:53.595Z,27.88
2022-09-07T12:28:29.233Z,27.88
2022-09-07T12:31:04.460Z,27.21
2022-09-07T12:33:39.252Z,27.43
2022-09-07T12:36:32.663Z,27.86
2022-09-07T12:39:25.009Z,28.61
2022-09-07T12:44:40.518Z,28.48
2022-09-07T12:47:16.121Z,28.25
2022-09-07T12:50:06.175Z,28.41
2022-09-07T12:52:47.612Z,28.27
2022-09-07T12:58:23.787Z,28.63
2022-09-07T13:01:05.227Z,28.35
2022-09-07T13:03:50.247Z,28.35
2022-09-07T13:09:37.524Z,28.11
2022-09-07T13:14:59.650Z,28.06
2022-09-07T13:17:41.759Z,27.81
2022-09-07T13:20:21.034Z,27.75
2022-09-07T13:22:53.814Z,27.94
2022-09-07T13:25:29.596Z,27.58
2022-09-07T13:28:02.637Z,27.00
2022-09-07T13:30:47.272Z,27.89
2022-09-07T13:33:32.543Z,28.42
2022-09-07T13:36:05.121Z,28.95
2022-09-07T13:38:36.818Z,29.29
2022-09-07T13:41:14.973Z,29.00
2022-09-07T13:43:51.724Z,28.90
2022-09-07T13:46:42.019Z,28.90
2022-09-07T13:49:20.122Z,28.58
2022-09-07T13:52:07.735Z,28.28
2022-09-07T13:54:51.599Z,27.99
2022-09-07T13:57:33.247Z,27.59
2022-09-07T14:00:03.114Z,27.76
2022-09-07T14:02:37.474Z,27.61
2022-09-07T14:05:11.435Z,28.23
2022-09-07T14:07:44.221Z,28.37
2022-09-07T14:10:24.905Z,28.37
2022-09-07T14:13:08.580Z,28.28
2022-09-07T14:15:46.940Z,28.36
2022-09-07T14:18:19.358Z,28.15
2022-09-07T14:20:53.805Z,28.25
2022-09-07T14:23:35.526Z,28.68
2022-09-07T14:26:20.009Z,28.78
2022-09-07T14:28:52.449Z,29.29
2022-09-07T14:31:25.236Z,29.70
2022-09-07T14:33:57.539Z,29.24
2022-09-07T14:36:44.076Z,29.02
2022-09-07T14:39:09.780Z,28.71
2022-09-07T14:41:41.820Z,28.52
2022-09-07T14:44:35.432Z,28.71
2022-09-07T14:47:12.486Z,29.03
2022-09-07T14:49:43.637Z,29.23
2022-09-07T14:52:16.940Z,29.33
2022-09-07T14:54:49.698Z,29.04
2022-09-07T14:57:25.582Z,28.72
2022-09-07T14:59:57.209Z,28.89
2022-09-07T15:02:36.193Z,28.83
2022-09-07T15:05:23.066Z,28.50
2022-09-07T15:07:57.940Z,28.40
2022-09-07T15:10:35.178Z,28.73
2022-09-07T15:13:07.114Z,28.59
2022-09-07T15:15:40.313Z,28.71
2022-09-07T15:18:53.316Z,28.96
2022-09-07T15:21:28.369Z,29.07
2022-09-07T15:23:59.595Z,29.15
2022-09-07T15:29:12.857Z,28.69
2022-09-07T15:31:49.737Z,28.60
2022-09-07T15:34:20.029Z,28.68
2022-09-07T15:36:52.941Z,28.55
2022-09-07T15:39:25.807Z,28.50
2022-09-07T15:41:55.777Z,28.73
2022-09-07T15:44:28.059Z,28.65
2022-09-07T15:49:29.137Z,28.57
2022-09-07T15:52:06.631Z,29.05
2022-09-07T15:54:31.105Z,29.06
2022-09-07T15:59:33.461Z,28.86
2022-09-07T16:02:03.358Z,28.98
2022-09-07T16:04:33.322Z,28.81
2022-09-07T16:07:03.049Z,28.70
2022-09-07T16:09:32.764Z,28.80
2022-09-07T16:14:35.111Z,28.51
2022-09-07T16:19:40.633Z,28.75
2022-09-07T16:22:09.961Z,28.37
2022-09-07T16:24:40.304Z,28.30
2022-09-07T16:27:10.704Z,27.93
2022-09-07T16:29:40.254Z,27.64
2022-09-07T16:34:42.829Z,27.73
2022-09-07T16:37:12.663Z,27.60
2022-09-07T16:39:42.807Z,27.60
2022-09-07T16:42:12.667Z,27.46
2022-09-07T16:44:42.670Z,27.35
2022-09-07T16:47:12.738Z,27.41
2022-09-07T16:49:42.461Z,27.29
2022-09-07T16:52:12.194Z,27.23
2022-09-07T16:54:41.978Z,26.99
2022-09-07T16:57:11.722Z,27.00
2022-09-07T16:59:41.455Z,26.89
2022-09-07T17:02:18.479Z,26.92
2022-09-07T17:04:48.032Z,26.76
2022-09-07T17:07:17.756Z,26.88
2022-09-07T17:09:47.473Z,26.85
2022-09-07T17:12:16.933Z,26.85
2022-09-07T17:14:46.647Z,27.03
2022-09-07T17:17:16.414Z,26.78
2022-09-07T17:19:46.132Z,26.78
2022-09-07T17:22:16.200Z,26.51
2022-09-07T17:24:46.454Z,26.25
2022-09-07T17:27:17.112Z,25.94
2022-09-07T17:29:46.863Z,25.94
2022-09-07T17:32:25.039Z,25.88
2022-09-07T17:34:48.529Z,25.97
2022-09-07T17:37:18.253Z,25.91
2022-09-07T17:39:48.118Z,25.79
2022-09-07T17:42:17.954Z,25.73
2022-09-07T17:44:52.794Z,25.64
2022-09-07T17:47:19.089Z,25.57
2022-09-07T17:49:48.818Z,25.55
2022-09-07T17:52:18.539Z,25.51
2022-09-07T17:54:48.808Z,25.05
2022-09-07T17:57:18.241Z,25.05
2022-09-07T18:02:21.072Z,25.26
2022-09-07T18:04:50.921Z,25.05
2022-09-07T18:07:20.597Z,24.99
2022-09-07T18:09:50.333Z,24.96
2022-09-07T18:12:20.074Z,24.61
2022-09-07T18:14:49.801Z,24.61
2022-09-07T18:17:19.815Z,24.76
2022-09-07T18:19:49.544Z,24.65
2022-09-07T18:22:19.451Z,24.52
2022-09-07T18:24:50.848Z,24.52
2022-09-07T18:27:21.321Z,24.61
2022-09-07T18:29:51.047Z,24.52
2022-09-07T18:32:20.477Z,24.23
2022-09-07T18:34:50.868Z,24.25
2022-09-07T18:37:20.771Z,24.37
2022-09-07T18:39:50.563Z,24.20
2022-09-07T18:42:20.042Z,24.09
2022-09-07T18:47:27.241Z,24.01
2022-09-07T18:49:52.765Z,23.96
2022-09-07T18:54:54.825Z,23.75
2022-09-07T18:57:25.137Z,23.90
2022-09-07T18:59:54.935Z,23.85
2022-09-07T19:02:24.802Z,23.58
2022-09-07T19:07:29.542Z,23.73
2022-09-07T19:09:58.136Z,23.46
2022-09-07T19:12:27.790Z,23.46
2022-09-07T19:14:57.513Z,23.45
2022-09-07T19:17:27.537Z,23.37
2022-09-07T19:19:57.624Z,23.26
2022-09-07T19:22:27.612Z,23.23
2022-09-07T19:24:57.643Z,23.01
2022-09-07T19:27:27.732Z,23.00
2022-09-07T19:29:57.461Z,22.91
2022-09-07T19:32:26.910Z,22.85
2022-09-07T19:34:56.637Z,22.84
2022-09-07T19:37:28.363Z,22.68
2022-09-07T19:39:58.799Z,22.77
2022-09-07T19:42:28.729Z,22.76
2022-09-07T19:44:58.635Z,22.57
2022-09-07T19:47:28.729Z,22.56
2022-09-07T19:49:58.464Z,22.57
2022-09-07T19:52:28.182Z,22.48
2022-09-07T19:54:59.546Z,22.38
2022-09-07T19:57:29.337Z,22.38
2022-09-07T20:00:00.141Z,22.32
2022-09-07T20:02:29.863Z,22.41
2022-09-07T20:04:59.587Z,22.15
2022-09-07T20:07:29.323Z,22.14
2022-09-07T20:09:59.039Z,22.18
2022-09-07T20:12:28.767Z,22.28
2022-09-07T20:14:58.491Z,22.24
2022-09-07T20:17:34.449Z,22.19
2022-09-07T20:20:00.307Z,22.36
2022-09-07T20:22:31.301Z,22.35
2022-09-07T20:25:01.029Z,22.17
2022-09-07T20:27:30.923Z,22.02
2022-09-07T20:30:00.951Z,22.09
2022-09-07T20:32:31.044Z,22.05
2022-09-07T20:35:01.563Z,22.01
2022-09-07T20:37:31.581Z,21.78
2022-09-07T20:40:01.778Z,21.75
2022-09-07T20:42:31.535Z,21.75
2022-09-07T20:45:02.206Z,21.95
2022-09-07T20:47:32.017Z,21.68
2022-09-07T20:50:01.746Z,21.71
2022-09-07T20:52:31.538Z,21.74
2022-09-07T20:55:01.551Z,21.74
2022-09-07T20:57:31.579Z,21.73
2022-09-07T21:00:01.679Z,21.87
2022-09-07T21:02:32.635Z,21.71
2022-09-07T21:05:02.355Z,21.75
2022-09-07T21:07:32.082Z,21.73
2022-09-07T21:10:06.042Z,21.58
2022-09-07T21:12:33.708Z,21.72
2022-09-07T21:15:03.645Z,21.80
2022-09-07T21:17:33.760Z,21.63
2022-09-07T21:20:03.827Z,21.59
2022-09-07T21:22:33.549Z,21.68
2022-09-07T21:25:03.578Z,21.53
2022-09-07T21:27:38.219Z,21.53
2022-09-07T21:30:08.861Z,21.73
2022-09-07T21:32:40.258Z,21.70
2022-09-07T21:35:13.061Z,21.56
2022-09-07T21:37:42.871Z,21.61
2022-09-07T21:40:13.523Z,21.80
2022-09-07T21:42:43.231Z,21.93
2022-09-07T21:45:12.952Z,21.60
2022-09-07T21:47:42.673Z,21.60
2022-09-07T21:50:14.200Z,21.56
2022-09-07T21:52:43.922Z,21.42
2022-09-07T21:55:13.648Z,21.62
2022-09-07T21:57:43.680Z,21.70
2022-09-07T22:00:15.998Z,21.70
2022-09-07T22:02:45.787Z,21.68
2022-09-07T22:05:15.641Z,21.53
2022-09-07T22:07:45.099Z,21.57
2022-09-07T22:10:15.972Z,21.61
2022-09-07T22:12:45.693Z,21.56
2022-09-07T22:15:15.484Z,21.80
2022-09-07T22:17:46.388Z,21.84
2022-09-07T22:20:16.238Z,21.81
2022-09-07T22:22:46.427Z,21.72
2022-09-07T22:25:16.216Z,21.87
2022-09-07T22:27:45.948Z,21.72
2022-09-07T22:30:15.821Z,21.66
2022-09-07T22:32:49.245Z,21.70
2022-09-07T22:35:20.058Z,21.73
2022-09-07T22:37:50.482Z,21.78
2022-09-07T22:40:19.982Z,21.85
2022-09-07T22:42:49.693Z,21.71
2022-09-07T22:45:19.516Z,21.64
2022-09-07T22:47:49.263Z,21.66
2022-09-07T22:50:20.235Z,21.64
2022-09-07T22:52:50.317Z,21.69
2022-09-07T22:55:19.757Z,21.57
2022-09-07T22:57:49.482Z,21.53
2022-09-07T23:00:19.122Z,21.55
2022-09-07T23:02:49.219Z,21.63
2022-09-07T23:05:18.720Z,21.53
2022-09-07T23:07:49.812Z,21.70
2022-09-07T23:10:19.704Z,21.52
2022-09-07T23:12:49.494Z,21.67
2022-09-07T23:15:19.212Z,21.52
2022-09-07T23:17:48.937Z,21.51
2022-09-07T23:20:18.727Z,21.81
2022-09-07T23:22:48.884Z,21.77
2022-09-07T23:25:18.653Z,21.59
2022-09-07T23:27:48.860Z,21.48
2022-09-07T23:30:18.771Z,21.32
2022-09-07T23:32:48.215Z,21.08
2022-09-07T23:35:17.895Z,21.08
2022-09-07T23:37:47.950Z,21.08
2022-09-07T23:40:17.943Z,21.14
2022-09-07T23:42:48.404Z,21.07
2022-09-07T23:45:18.107Z,21.02
2022-09-07T23:47:47.829Z,21.02
2022-09-07T23:50:17.797Z,21.14
2022-09-07T23:52:47.389Z,21.00
2022-09-07T23:55:17.202Z,21.10
2022-09-07T23:57:47.061Z,21.12
